createdAt,value
2017-06-09T00:00:02.728Z,87.40
2017-06-09T00:02:30.900Z,87.80
2017-06-09T00:04:59.613Z,87.70
2017-06-09T00:07:27.893Z,88.00
2017-06-09T00:09:56.079Z,87.60
2017-06-09T00:12:24.655Z,87.60
2017-06-09T00:14:52.847Z,88.00
2017-06-09T00:17:21.091Z,87.90
2017-06-09T00:19:49.684Z,87.70
2017-06-09T00:22:17.869Z,88.20
2017-06-09T00:24:46.835Z,88.50
2017-06-09T00:27:15.480Z,88.10
2017-06-09T00:29:43.660Z,88.20
2017-06-09T00:32:11.868Z,88.60
2017-06-09T00:34:40.552Z,88.80
2017-06-09T00:37:08.734Z,89.00
2017-06-09T00:39:37.945Z,88.90
2017-06-09T00:42:06.515Z,88.40
2017-06-09T00:44:34.739Z,88.50
2017-06-09T00:47:02.925Z,89.20
2017-06-09T00:49:31.458Z,89.20
2017-06-09T00:51:59.675Z,88.60
2017-06-09T00:54:27.862Z,89.00
2017-06-09T00:56:56.387Z,89.10
2017-06-09T00:59:25.411Z,88.90
2017-06-09T01:01:53.578Z,89.00
2017-06-09T01:04:22.268Z,88.40
2017-06-09T01:06:50.471Z,89.00
2017-06-09T01:09:18.677Z,89.00
2017-06-09T01:11:47.255Z,88.90
2017-06-09T01:14:15.430Z,88.80
2017-06-09T01:16:43.615Z,88.80
2017-06-09T01:19:12.163Z,88.70
2017-06-09T01:21:40.364Z,88.90
2017-06-09T01:24:08.545Z,88.90
2017-06-09T01:26:37.112Z,88.80
2017-06-09T01:29:05.296Z,88.90
2017-06-09T01:31:33.469Z,88.70
2017-06-09T01:34:02.010Z,88.70
2017-06-09T01:36:30.206Z,88.70
2017-06-09T01:38:58.383Z,88.80
2017-06-09T01:41:26.927Z,88.80
2017-06-09T01:43:55.204Z,88.80
2017-06-09T01:46:23.458Z,88.80
2017-06-09T01:48:52.288Z,88.80
2017-06-09T01:51:20.451Z,88.70
2017-06-09T01:53:48.636Z,88.70
2017-06-09T01:56:17.161Z,88.60
2017-06-09T01:58:45.348Z,88.60
2017-06-09T02:01:13.573Z,88.60
2017-06-09T02:03:42.250Z,88.60
2017-06-09T02:06:10.427Z,88.60
2017-06-09T02:08:38.624Z,88.60
2017-06-09T02:11:07.196Z,88.60
2017-06-09T02:13:36.192Z,88.70
2017-06-09T02:16:04.497Z,88.60
2017-06-09T02:18:33.018Z,88.60
2017-06-09T02:21:01.227Z,88.60
2017-06-09T02:23:29.407Z,89.00
2017-06-09T02:25:57.936Z,88.60
2017-06-09T02:28:26.111Z,88.60
2017-06-09T02:30:54.310Z,88.50
2017-06-09T02:33:23.004Z,88.50
2017-06-09T02:35:51.954Z,88.50
2017-06-09T02:38:20.169Z,88.50
2017-06-09T02:40:48.735Z,88.40
2017-06-09T02:43:16.909Z,88.50
2017-06-09T02:45:45.108Z,88.50
2017-06-09T02:48:13.659Z,88.50
2017-06-09T02:50:41.831Z,88.50
2017-06-09T02:53:10.021Z,88.40
2017-06-09T02:55:38.586Z,88.40
2017-06-09T02:58:06.769Z,89.10
2017-06-09T03:00:35.134Z,89.10
2017-06-09T03:03:03.735Z,88.80
2017-06-09T03:05:31.973Z,89.00
2017-06-09T03:08:00.155Z,88.60
2017-06-09T03:10:28.688Z,88.70
2017-06-09T03:12:56.865Z,88.40
2017-06-09T03:15:25.795Z,88.50
2017-06-09T03:17:54.403Z,88.40
2017-06-09T03:20:22.589Z,88.50
2017-06-09T03:22:51.043Z,88.60
2017-06-09T03:25:19.543Z,88.70
2017-06-09T03:27:47.710Z,87.70
2017-06-09T03:30:15.982Z,87.20
2017-06-09T03:32:50.115Z,87.10
2017-06-09T03:35:19.149Z,84.90
2017-06-09T03:37:47.336Z,84.90
2017-06-09T03:40:16.045Z,84.90
2017-06-09T03:42:44.237Z,83.70
2017-06-09T03:45:13.238Z,82.80
2017-06-09T03:47:41.796Z,82.20
2017-06-09T03:50:10.098Z,82.20
2017-06-09T03:52:38.311Z,82.70
2017-06-09T03:55:06.915Z,82.20
2017-06-09T03:57:35.113Z,81.30
2017-06-09T04:00:03.339Z,81.40
2017-06-09T04:02:31.988Z,82.00
2017-06-09T04:05:00.174Z,80.60
2017-06-09T04:07:28.378Z,79.50
2017-06-09T04:09:56.977Z,80.40
2017-06-09T04:12:25.173Z,79.90
2017-06-09T04:14:53.376Z,79.00
2017-06-09T04:17:22.031Z,78.50
2017-06-09T04:19:50.295Z,78.00
2017-06-09T04:22:18.478Z,77.30
2017-06-09T04:24:47.045Z,77.50
2017-06-09T04:27:15.265Z,77.80
2017-06-09T04:29:43.461Z,77.80
2017-06-09T04:32:12.098Z,77.80
2017-06-09T04:34:40.296Z,77.90
2017-06-09T04:37:08.556Z,77.40
2017-06-09T04:39:37.136Z,77.20
2017-06-09T04:42:05.329Z,77.60
2017-06-09T04:44:33.504Z,77.40
2017-06-09T04:47:02.021Z,77.40
2017-06-09T04:49:30.217Z,77.60
2017-06-09T04:51:58.409Z,77.70
2017-06-09T04:54:27.770Z,77.10
2017-06-09T04:56:55.977Z,77.00
2017-06-09T04:59:24.283Z,75.30
2017-06-09T05:01:52.910Z,75.70
2017-06-09T05:04:21.087Z,74.30
2017-06-09T05:06:49.288Z,72.50
2017-06-09T05:09:18.671Z,72.30
2017-06-09T05:11:46.865Z,71.80
2017-06-09T05:14:15.825Z,70.20
2017-06-09T05:16:44.408Z,70.20
2017-06-09T05:19:12.613Z,69.50
2017-06-09T05:21:40.793Z,67.60
2017-06-09T05:24:09.367Z,67.30
2017-06-09T05:26:37.547Z,66.90
2017-06-09T05:29:05.766Z,67.10
2017-06-09T05:31:34.326Z,66.40
2017-06-09T05:34:02.540Z,65.30
2017-06-09T05:36:30.828Z,65.70
2017-06-09T05:38:59.372Z,65.40
2017-06-09T05:41:27.618Z,65.40
2017-06-09T05:43:55.821Z,67.00
2017-06-09T05:46:24.411Z,66.80
2017-06-09T05:48:52.634Z,67.70
2017-06-09T05:51:20.860Z,67.70
2017-06-09T05:53:49.547Z,67.40
2017-06-09T05:56:17.792Z,66.70
2017-06-09T05:58:46.071Z,65.80
2017-06-09T06:01:14.693Z,65.80
2017-06-09T06:03:42.926Z,65.50
2017-06-09T06:06:11.140Z,64.10
2017-06-09T06:08:39.700Z,62.30
2017-06-09T06:11:07.921Z,60.80
2017-06-09T06:13:36.126Z,60.20
2017-06-09T06:16:04.652Z,58.70
2017-06-09T06:18:32.973Z,58.00
2017-06-09T06:21:01.204Z,57.60
2017-06-09T06:23:29.945Z,56.50
2017-06-09T06:25:58.112Z,56.50
2017-06-09T06:28:26.328Z,55.70
2017-06-09T06:30:54.891Z,55.60
2017-06-09T06:33:23.066Z,53.30
2017-06-09T06:35:51.418Z,52.60
2017-06-09T06:38:19.853Z,52.90
2017-06-09T06:40:48.157Z,52.30
2017-06-09T06:43:17.128Z,52.90
2017-06-09T06:45:45.609Z,52.80
2017-06-09T06:48:13.948Z,52.60
2017-06-09T06:50:42.130Z,52.60
2017-06-09T06:53:10.491Z,53.40
2017-06-09T06:55:38.678Z,54.30
2017-06-09T06:58:06.944Z,56.00
2017-06-09T07:00:35.352Z,57.30
2017-06-09T07:03:03.563Z,57.20
2017-06-09T07:05:31.777Z,57.60
2017-06-09T07:08:00.197Z,58.70
2017-06-09T07:10:29.206Z,56.80
2017-06-09T07:12:57.399Z,56.80
2017-06-09T07:15:26.039Z,57.70
2017-06-09T07:17:54.353Z,60.30
2017-06-09T07:20:22.522Z,56.60
2017-06-09T07:22:51.158Z,58.00
2017-06-09T07:25:19.541Z,59.00
2017-06-09T07:27:47.720Z,58.50
2017-06-09T07:30:16.282Z,58.70
2017-06-09T07:32:44.483Z,57.10
2017-06-09T07:35:12.690Z,57.90
2017-06-09T07:37:41.203Z,57.90
2017-06-09T07:40:09.427Z,56.50
2017-06-09T07:42:37.599Z,57.40
2017-06-09T07:45:06.164Z,58.70
2017-06-09T07:47:34.366Z,58.30
2017-06-09T07:50:02.605Z,59.70
2017-06-09T07:52:31.211Z,58.30
2017-06-09T07:55:00.169Z,59.20
2017-06-09T07:57:28.359Z,59.20
2017-06-09T07:59:56.930Z,58.70
2017-06-09T08:02:25.147Z,59.70
2017-06-09T08:04:53.340Z,58.80
2017-06-09T08:07:21.965Z,57.20
2017-06-09T08:09:50.162Z,56.80
2017-06-09T08:12:19.118Z,57.10
2017-06-09T08:14:47.637Z,57.00
2017-06-09T08:17:16.614Z,56.80
2017-06-09T08:19:44.815Z,56.80
2017-06-09T08:22:13.422Z,55.50
2017-06-09T08:24:41.594Z,56.40
2017-06-09T08:27:09.770Z,55.70
2017-06-09T08:29:38.460Z,55.80
2017-06-09T08:32:06.640Z,54.70
2017-06-09T08:34:34.845Z,55.30
2017-06-09T08:37:03.394Z,55.50
2017-06-09T08:39:31.570Z,55.00
2017-06-09T08:41:59.750Z,55.00
2017-06-09T08:44:28.340Z,56.00
2017-06-09T08:46:56.522Z,54.70
2017-06-09T08:49:24.680Z,53.80
2017-06-09T08:51:53.224Z,55.50
2017-06-09T08:54:21.431Z,55.10
2017-06-09T08:56:49.625Z,56.20
2017-06-09T08:59:18.174Z,55.80
2017-06-09T09:01:46.342Z,55.50
2017-06-09T09:04:14.535Z,54.90
2017-06-09T09:06:43.118Z,53.30
2017-06-09T09:09:11.314Z,54.30
2017-06-09T09:11:39.503Z,54.30
2017-06-09T09:14:08.245Z,54.20
2017-06-09T09:16:36.441Z,55.60
2017-06-09T09:19:04.818Z,54.30
2017-06-09T09:21:33.397Z,54.70
2017-06-09T09:24:01.568Z,53.90
2017-06-09T09:26:29.752Z,54.10
2017-06-09T09:28:59.058Z,53.70
2017-06-09T09:31:28.010Z,53.00
2017-06-09T09:33:56.185Z,53.30
2017-06-09T09:36:24.698Z,52.70
2017-06-09T09:38:52.883Z,54.50
2017-06-09T09:41:21.832Z,51.70
2017-06-09T09:43:50.499Z,52.40
2017-06-09T09:46:18.707Z,52.00
2017-06-09T09:48:46.937Z,51.40
2017-06-09T09:51:15.565Z,53.10
2017-06-09T09:53:43.746Z,51.10
2017-06-09T09:56:11.950Z,52.40
2017-06-09T09:58:40.585Z,52.70
2017-06-09T10:01:08.802Z,50.40
2017-06-09T10:03:37.742Z,48.90
2017-06-09T10:06:06.336Z,48.90
2017-06-09T10:08:34.562Z,49.00
2017-06-09T10:11:02.779Z,48.80
2017-06-09T10:13:31.368Z,49.70
2017-06-09T10:15:59.565Z,48.20
2017-06-09T10:18:27.754Z,48.90
2017-06-09T10:20:56.306Z,47.00
2017-06-09T10:23:24.515Z,48.70
2017-06-09T10:25:52.696Z,47.90
2017-06-09T10:28:21.336Z,49.90
2017-06-09T10:30:49.591Z,48.50
2017-06-09T10:33:17.909Z,48.20
2017-06-09T10:35:47.213Z,47.50
2017-06-09T10:38:16.180Z,49.00
2017-06-09T10:40:44.518Z,49.00
2017-06-09T10:43:13.235Z,45.80
2017-06-09T10:45:41.446Z,45.70
2017-06-09T10:48:10.426Z,45.70
2017-06-09T10:50:39.106Z,45.60
2017-06-09T10:53:08.145Z,45.90
2017-06-09T10:55:36.332Z,45.30
2017-06-09T10:58:04.932Z,44.90
2017-06-09T11:00:33.116Z,45.10
2017-06-09T11:03:01.331Z,44.30
2017-06-09T11:05:29.977Z,45.70
2017-06-09T11:07:58.215Z,45.70
2017-06-09T11:10:26.423Z,44.80
2017-06-09T11:12:54.941Z,45.50
2017-06-09T11:15:23.165Z,46.00
2017-06-09T11:17:51.344Z,46.60
2017-06-09T11:20:19.884Z,47.90
2017-06-09T11:22:48.055Z,47.00
2017-06-09T11:25:16.255Z,48.20
2017-06-09T11:27:44.864Z,47.70
2017-06-09T11:30:13.009Z,47.80
2017-06-09T11:32:41.220Z,48.40
2017-06-09T11:35:10.501Z,49.60
2017-06-09T11:37:38.708Z,48.80
2017-06-09T11:40:07.651Z,49.80
2017-06-09T11:42:36.243Z,49.70
2017-06-09T11:45:04.486Z,49.40
2017-06-09T11:47:32.716Z,49.80
2017-06-09T11:50:01.243Z,47.60
2017-06-09T11:52:29.473Z,48.20
2017-06-09T11:54:58.431Z,47.50
2017-06-09T11:57:27.033Z,47.50
2017-06-09T11:59:55.256Z,47.90
2017-06-09T12:02:23.479Z,47.90
2017-06-09T12:04:52.261Z,48.40
2017-06-09T12:07:20.488Z,48.50
2017-06-09T12:09:49.016Z,48.00
2017-06-09T12:12:17.629Z,49.30
2017-06-09T12:14:46.610Z,48.10
2017-06-09T12:17:15.664Z,49.90
2017-06-09T12:19:44.577Z,49.20
2017-06-09T12:22:12.783Z,50.00
2017-06-09T12:24:41.757Z,48.80
2017-06-09T12:27:11.074Z,48.30
2017-06-09T12:29:39.456Z,48.30
2017-06-09T12:32:07.632Z,49.10
2017-06-09T12:34:36.272Z,47.70
2017-06-09T12:37:04.464Z,48.10
2017-06-09T12:52:33.121Z,47.10
2017-06-09T12:55:01.436Z,44.60
2017-06-09T12:57:29.810Z,45.30
2017-06-09T12:59:58.461Z,43.30
2017-06-09T13:02:26.631Z,45.10
2017-06-09T13:04:54.900Z,44.20
2017-06-09T13:07:23.596Z,44.70
2017-06-09T13:09:51.775Z,43.80
2017-06-09T13:12:20.030Z,42.60
2017-06-09T13:14:48.570Z,42.50
2017-06-09T13:17:16.760Z,41.70
2017-06-09T13:19:44.999Z,42.80
2017-06-09T13:22:13.545Z,41.30
2017-06-09T13:24:41.764Z,41.40
2017-06-09T13:27:09.966Z,40.90
2017-06-09T13:29:38.570Z,44.70
2017-06-09T13:32:06.811Z,46.50
2017-06-09T13:34:35.026Z,49.60
2017-06-09T13:37:04.542Z,52.10
2017-06-09T13:39:32.772Z,52.20
2017-06-09T13:42:01.022Z,53.50
2017-06-09T13:44:29.574Z,53.30
2017-06-09T13:46:57.862Z,53.30
2017-06-09T13:49:26.911Z,54.00
2017-06-09T13:51:56.558Z,54.00
2017-06-09T13:54:24.777Z,54.50
2017-06-09T13:56:53.028Z,57.00
2017-06-09T13:59:21.572Z,58.80
2017-06-09T14:01:49.773Z,60.30
2017-06-09T14:04:18.060Z,59.70
2017-06-09T14:06:46.740Z,59.30
2017-06-09T14:09:14.953Z,59.80
2017-06-09T14:11:43.117Z,59.40
2017-06-09T14:14:11.838Z,60.10
2017-06-09T14:16:40.063Z,61.90
2017-06-09T14:19:09.963Z,64.20
2017-06-09T14:21:38.615Z,64.00
2017-06-09T14:24:06.808Z,64.80
2017-06-09T14:26:35.001Z,67.50
2017-06-09T14:29:03.795Z,68.90
2017-06-09T14:31:31.979Z,72.10
2017-06-09T14:34:00.206Z,75.20
2017-06-09T14:36:29.715Z,78.80
2017-06-09T14:38:57.902Z,81.30
2017-06-09T14:41:26.097Z,80.90
2017-06-09T14:43:54.701Z,84.60
2017-06-09T14:46:22.863Z,86.20
2017-06-09T14:48:51.048Z,85.30
2017-06-09T14:51:19.636Z,87.10
2017-06-09T14:53:47.988Z,86.50
2017-06-09T14:56:16.156Z,88.30
2017-06-09T14:58:44.703Z,87.20
2017-06-09T15:01:13.940Z,87.60
2017-06-09T15:03:42.175Z,87.60
2017-06-09T15:06:10.878Z,88.20
2017-06-09T15:08:39.076Z,88.40
2017-06-09T15:11:07.251Z,88.20
2017-06-09T15:13:35.866Z,88.60
2017-06-09T15:16:04.086Z,88.50
2017-06-09T15:18:32.289Z,90.00
2017-06-09T15:21:00.898Z,89.30
2017-06-09T15:23:29.199Z,90.00
2017-06-09T15:25:57.451Z,90.00
2017-06-09T15:28:26.058Z,89.70
2017-06-09T15:30:54.279Z,90.10
2017-06-09T15:33:22.502Z,89.70
2017-06-09T15:35:52.000Z,89.20
2017-06-09T15:38:20.954Z,89.80
2017-06-09T15:40:49.128Z,90.10
2017-06-09T15:43:17.735Z,90.10
2017-06-09T15:45:45.920Z,89.80
2017-06-09T15:48:14.169Z,89.60
2017-06-09T15:50:43.125Z,89.80
2017-06-09T15:53:11.359Z,88.80
2017-06-09T15:55:40.302Z,89.20
2017-06-09T15:58:09.019Z,89.10
2017-06-09T16:00:37.203Z,88.90
2017-06-09T16:03:05.420Z,88.40
2017-06-09T16:05:33.971Z,88.00
2017-06-09T16:08:02.945Z,88.90
2017-06-09T16:10:31.118Z,88.90
2017-06-09T16:12:59.780Z,89.20
2017-06-09T16:15:28.061Z,88.80
2017-06-09T16:17:56.260Z,90.00
2017-06-09T16:20:24.814Z,89.50
2017-06-09T16:22:53.067Z,89.40
2017-06-09T16:25:21.272Z,89.10
2017-06-09T16:27:49.887Z,87.40
2017-06-09T16:30:18.879Z,88.60
2017-06-09T16:32:47.871Z,87.90
2017-06-09T16:35:17.240Z,87.80
2017-06-09T16:37:45.465Z,87.80
2017-06-09T16:40:13.665Z,87.30
2017-06-09T16:42:42.185Z,86.20
2017-06-09T16:45:10.405Z,85.70
2017-06-09T16:47:38.671Z,86.60
2017-06-09T16:50:07.156Z,86.80
2017-06-09T16:52:35.347Z,86.20
2017-06-09T16:55:03.567Z,87.40
2017-06-09T16:57:32.433Z,86.50
2017-06-09T17:00:00.735Z,87.10
2017-06-09T17:02:29.025Z,86.10
2017-06-09T17:04:57.568Z,86.60
2017-06-09T17:07:25.768Z,85.90
2017-06-09T17:09:54.000Z,87.20
2017-06-09T17:12:22.632Z,86.50
2017-06-09T17:14:50.831Z,86.50
2017-06-09T17:17:19.022Z,86.00
2017-06-09T17:19:47.626Z,85.50
2017-06-09T17:22:16.610Z,85.90
2017-06-09T17:24:45.605Z,85.70
2017-06-09T17:27:14.411Z,85.70
2017-06-09T17:29:42.643Z,84.60
2017-06-09T17:32:10.865Z,84.40
2017-06-09T17:34:39.474Z,84.90
2017-06-09T17:37:07.777Z,84.30
2017-06-09T17:39:35.932Z,83.20
2017-06-09T17:42:04.493Z,82.70
2017-06-09T17:44:33.802Z,83.20
2017-06-09T17:47:02.165Z,83.20
2017-06-09T17:49:30.677Z,83.10
2017-06-09T17:51:58.961Z,82.00
2017-06-09T17:54:27.156Z,83.40
2017-06-09T17:56:55.986Z,83.60
2017-06-09T17:59:24.194Z,82.10
2017-06-09T18:01:52.388Z,79.30
2017-06-09T18:04:20.985Z,79.90
2017-06-09T18:06:49.253Z,78.80
2017-06-09T18:09:17.448Z,79.30
2017-06-09T18:11:46.890Z,80.80
2017-06-09T18:14:15.271Z,80.70
2017-06-09T18:16:43.437Z,81.90
2017-06-09T18:19:12.186Z,82.20
2017-06-09T18:21:40.398Z,81.70
2017-06-09T18:24:08.577Z,83.00
2017-06-09T18:26:37.104Z,81.80
2017-06-09T18:29:05.302Z,81.50
2017-06-09T18:31:34.289Z,83.90
2017-06-09T18:34:02.973Z,83.80
2017-06-09T18:36:31.980Z,84.10
2017-06-09T18:39:00.168Z,84.00
2017-06-09T18:41:28.698Z,85.20
2017-06-09T18:43:56.927Z,85.50
2017-06-09T18:46:25.134Z,85.50
2017-06-09T18:48:53.829Z,84.60
2017-06-09T18:51:22.205Z,86.30
2017-06-09T18:53:50.442Z,86.80
2017-06-09T18:56:19.243Z,86.60
2017-06-09T18:58:47.616Z,87.00
2017-06-09T19:01:15.827Z,86.70
2017-06-09T19:03:44.514Z,85.90
2017-06-09T19:06:12.758Z,87.60
2017-06-09T19:08:40.999Z,87.20
2017-06-09T19:11:09.676Z,90.20
2017-06-09T19:13:38.657Z,89.00
2017-06-09T19:16:06.985Z,89.00
2017-06-09T19:18:35.603Z,88.50
2017-06-09T19:21:03.854Z,88.90
2017-06-09T19:23:32.078Z,88.40
2017-06-09T19:26:00.742Z,86.80
2017-06-09T19:28:29.057Z,86.60
2017-06-09T19:30:57.294Z,86.70
2017-06-09T19:33:25.887Z,87.10
2017-06-09T19:35:54.923Z,87.20
2017-06-09T19:38:23.191Z,87.20
2017-06-09T19:40:51.830Z,87.60
2017-06-09T19:43:20.020Z,86.20
2017-06-09T19:45:48.271Z,86.60
2017-06-09T19:48:16.844Z,84.80
2017-06-09T19:50:45.087Z,86.40
2017-06-09T19:53:13.347Z,87.00
2017-06-09T19:55:41.922Z,86.90
2017-06-09T19:58:10.122Z,87.20
2017-06-09T20:00:38.311Z,87.20
2017-06-09T20:03:06.879Z,87.80
2017-06-09T20:05:35.123Z,88.50
2017-06-09T20:08:03.456Z,87.20
2017-06-09T20:10:32.067Z,88.30
2017-06-09T20:13:01.059Z,88.30
2017-06-09T20:15:29.273Z,88.30
2017-06-09T20:17:57.899Z,87.90
2017-06-09T20:20:26.141Z,87.20
2017-06-09T20:22:54.362Z,87.50
2017-06-09T20:25:22.816Z,87.80
2017-06-09T20:27:51.022Z,88.10
2017-06-09T20:30:19.285Z,88.10
2017-06-09T20:32:48.451Z,87.90
2017-06-09T20:35:16.738Z,87.20
2017-06-09T20:37:44.977Z,87.00
2017-06-09T20:40:13.392Z,87.40
2017-06-09T20:42:41.638Z,86.70
2017-06-09T20:45:09.868Z,86.90
2017-06-09T20:47:39.154Z,87.10
2017-06-09T20:50:07.360Z,87.10
2017-06-09T20:52:35.630Z,87.50
2017-06-09T20:55:04.091Z,88.10
2017-06-09T20:57:33.038Z,88.20
2017-06-09T21:00:01.257Z,88.20
2017-06-09T21:02:30.545Z,89.30
2017-06-09T21:04:58.828Z,89.30
2017-06-09T21:07:27.787Z,90.20
2017-06-09T21:09:56.345Z,90.10
2017-06-09T21:12:24.562Z,90.10
2017-06-09T21:14:52.759Z,89.90
2017-06-09T21:17:21.894Z,89.60
2017-06-09T21:19:50.105Z,89.50
2017-06-09T21:22:18.277Z,90.00
2017-06-09T21:24:46.754Z,90.20
2017-06-09T21:27:14.985Z,89.50
2017-06-09T21:29:43.184Z,89.60
2017-06-09T21:32:11.672Z,89.50
2017-06-09T21:34:39.895Z,90.00
2017-06-09T21:37:08.083Z,90.20
2017-06-09T21:39:37.110Z,90.60
2017-06-09T21:42:05.316Z,90.10
2017-06-09T21:44:34.257Z,90.40
2017-06-09T21:47:02.761Z,90.40
2017-06-09T21:49:30.945Z,90.10
2017-06-09T21:51:59.185Z,90.30
2017-06-09T21:54:27.723Z,90.30
2017-06-09T21:56:56.704Z,90.60
2017-06-09T21:59:24.910Z,90.60
2017-06-09T22:01:53.296Z,90.00
2017-06-09T22:04:21.513Z,90.30
2017-06-09T22:06:49.690Z,90.50
2017-06-09T22:09:18.171Z,90.40
2017-06-09T22:11:46.355Z,90.60
2017-06-09T22:14:15.290Z,90.50
2017-06-09T22:16:43.838Z,90.40
2017-06-09T22:19:12.808Z,90.20
2017-06-09T22:21:40.996Z,90.20
2017-06-09T22:24:10.170Z,90.20
2017-06-09T22:26:38.346Z,90.20
2017-06-09T22:29:06.581Z,90.00
2017-06-09T22:31:34.994Z,90.10
2017-06-09T22:34:03.189Z,90.20
2017-06-09T22:36:32.189Z,90.30
2017-06-09T22:39:01.342Z,90.60
2017-06-09T22:41:29.551Z,90.60
2017-06-09T22:43:57.780Z,90.70
2017-06-09T22:46:26.290Z,90.30
2017-06-09T22:48:54.471Z,90.50
2017-06-09T22:51:22.676Z,90.50
2017-06-09T22:53:51.117Z,90.50
2017-06-09T22:56:19.298Z,90.30
2017-06-09T22:58:47.498Z,90.80
2017-06-09T23:01:15.866Z,90.50
2017-06-09T23:03:44.843Z,91.00
2017-06-09T23:06:13.804Z,90.70
2017-06-09T23:08:42.282Z,90.70
2017-06-09T23:11:10.491Z,90.70
2017-06-09T23:13:39.433Z,90.70
2017-06-09T23:16:07.850Z,90.70
2017-06-09T23:18:36.050Z,90.70
2017-06-09T23:21:04.485Z,90.80
2017-06-09T23:23:33.158Z,90.80
2017-06-09T23:26:01.366Z,91.00
2017-06-09T23:28:30.327Z,90.70
2017-06-09T23:31:04.152Z,90.50
2017-06-09T23:33:32.345Z,90.70
2017-06-09T23:36:06.109Z,90.60
2017-06-09T23:38:34.278Z,90.40
2017-06-09T23:41:02.502Z,90.20
2017-06-09T23:43:31.656Z,90.70
2017-06-09T23:45:59.850Z,90.80
2017-06-09T23:48:28.055Z,90.60
2017-06-09T23:50:56.438Z,90.60
2017-06-09T23:53:24.655Z,90.80
2017-06-09T23:55:52.867Z,90.70
2017-06-09T23:58:22.014Z,90.90
